createdAt,value
2017-11-12T00:00:05.654Z,79.39
2017-11-12T00:02:32.089Z,79.46
2017-11-12T00:04:58.463Z,79.57
2017-11-12T00:07:25.777Z,79.56
2017-11-12T00:09:52.180Z,79.59
2017-11-12T00:12:18.542Z,79.69
2017-11-12T00:14:44.991Z,79.87
2017-11-12T00:17:11.433Z,79.97
2017-11-12T00:19:37.847Z,80.01
2017-11-12T00:22:04.175Z,79.95
2017-11-12T00:24:31.433Z,80.00
2017-11-12T00:26:57.837Z,80.13
2017-11-12T00:29:24.302Z,80.19
2017-11-12T00:31:50.736Z,80.11
2017-11-12T00:34:17.182Z,79.87
2017-11-12T00:36:43.584Z,79.80
2017-11-12T00:39:10.045Z,79.78
2017-11-12T00:41:37.215Z,79.80
2017-11-12T00:44:03.627Z,79.72
2017-11-12T00:46:30.061Z,79.63
2017-11-12T00:48:56.380Z,79.53
2017-11-12T00:51:22.838Z,79.62
2017-11-12T00:53:49.201Z,79.72
2017-11-12T00:56:15.616Z,79.71
2017-11-12T00:58:42.832Z,79.76
2017-11-12T01:01:09.284Z,79.82
2017-11-12T01:03:35.821Z,80.03
2017-11-12T01:06:02.283Z,80.15
2017-11-12T01:08:28.802Z,80.20
2017-11-12T01:10:55.227Z,80.51
2017-11-12T01:13:21.774Z,80.82
2017-11-12T01:15:48.916Z,81.08
2017-11-12T01:18:15.351Z,81.38
2017-11-12T01:20:41.785Z,81.65
2017-11-12T01:23:08.161Z,81.60
2017-11-12T01:25:34.623Z,81.50
2017-11-12T01:28:01.091Z,81.65
2017-11-12T01:30:27.533Z,81.80
2017-11-12T01:32:54.675Z,81.85
2017-11-12T01:35:21.119Z,81.82
2017-11-12T01:37:47.575Z,81.82
2017-11-12T01:40:13.916Z,81.86
2017-11-12T01:42:40.384Z,81.92
2017-11-12T01:45:06.850Z,82.12
2017-11-12T01:47:33.284Z,82.29
2017-11-12T01:50:00.408Z,82.46
2017-11-12T01:52:26.916Z,82.73
2017-11-12T01:54:53.283Z,83.01
2017-11-12T01:57:19.731Z,83.04
2017-11-12T01:59:46.175Z,83.21
2017-11-12T02:02:12.619Z,83.49
2017-11-12T02:04:39.073Z,84.14
2017-11-12T02:07:06.298Z,84.40
2017-11-12T02:09:32.742Z,84.35
2017-11-12T02:11:59.136Z,84.08
2017-11-12T02:14:25.603Z,83.87
2017-11-12T02:16:52.044Z,83.43
2017-11-12T02:19:18.403Z,83.24
2017-11-12T02:21:44.784Z,83.48
2017-11-12T02:24:12.064Z,83.64
2017-11-12T02:26:38.491Z,83.89
2017-11-12T02:29:04.859Z,83.92
2017-11-12T02:31:31.361Z,83.84
2017-11-12T02:33:57.796Z,83.84
2017-11-12T02:36:24.231Z,83.83
2017-11-12T02:38:50.665Z,84.02
2017-11-12T02:41:17.819Z,84.16
2017-11-12T02:43:44.281Z,84.52
2017-11-12T02:46:10.797Z,84.61
2017-11-12T02:48:37.231Z,84.46
2017-11-12T02:51:03.659Z,83.64
2017-11-12T02:53:30.092Z,84.38
2017-11-12T02:55:56.527Z,84.33
2017-11-12T02:58:23.679Z,84.28
2017-11-12T03:00:50.115Z,84.39
2017-11-12T03:03:16.547Z,84.72
2017-11-12T03:05:42.927Z,84.92
2017-11-12T03:08:09.426Z,84.99
2017-11-12T03:10:35.878Z,84.98
2017-11-12T03:13:02.398Z,84.98
2017-11-12T03:15:29.549Z,85.03
2017-11-12T03:17:55.908Z,84.65
2017-11-12T03:20:22.384Z,84.89
2017-11-12T03:22:48.827Z,85.40
2017-11-12T03:25:15.310Z,85.56
2017-11-12T03:27:41.716Z,85.25
2017-11-12T03:30:08.158Z,85.02
2017-11-12T03:32:35.406Z,84.07
2017-11-12T03:35:01.845Z,84.13
2017-11-12T03:37:28.272Z,85.05
2017-11-12T03:39:54.707Z,85.73
2017-11-12T03:42:21.251Z,84.95
2017-11-12T03:44:47.712Z,84.80
2017-11-12T03:47:14.115Z,84.75
2017-11-12T03:49:41.370Z,84.23
2017-11-12T03:52:07.803Z,83.61
2017-11-12T03:54:34.245Z,84.38
2017-11-12T03:57:00.671Z,84.70
2017-11-12T03:59:27.105Z,85.61
2017-11-12T04:01:53.539Z,85.84
2017-11-12T04:04:20.077Z,85.52
2017-11-12T04:06:47.136Z,85.61
2017-11-12T04:09:13.562Z,85.34
2017-11-12T04:11:40.003Z,84.54
2017-11-12T04:14:06.431Z,84.36
2017-11-12T04:16:32.808Z,84.48
2017-11-12T04:18:59.198Z,84.67
2017-11-12T04:21:25.632Z,84.04
2017-11-12T04:23:52.820Z,83.95
2017-11-12T04:26:19.218Z,84.09
2017-11-12T04:28:45.552Z,84.30
2017-11-12T04:31:11.985Z,84.52
2017-11-12T04:33:38.421Z,84.92
2017-11-12T04:36:04.859Z,85.27
2017-11-12T04:38:31.298Z,84.66
2017-11-12T04:40:58.340Z,84.41
2017-11-12T04:43:24.696Z,84.93
2017-11-12T04:45:51.135Z,85.32
2017-11-12T04:48:17.651Z,85.77
2017-11-12T04:50:44.048Z,85.99
2017-11-12T04:53:10.515Z,86.23
2017-11-12T04:55:36.949Z,85.93
2017-11-12T04:58:04.137Z,85.53
2017-11-12T05:00:30.535Z,84.88
2017-11-12T05:02:56.977Z,84.80
2017-11-12T05:05:23.413Z,84.77
2017-11-12T05:07:49.804Z,85.03
2017-11-12T05:10:16.271Z,85.13
2017-11-12T05:12:42.714Z,85.34
2017-11-12T05:15:09.961Z,85.42
2017-11-12T05:17:36.383Z,85.50
2017-11-12T05:20:02.835Z,85.57
2017-11-12T05:22:29.263Z,85.45
2017-11-12T05:24:55.700Z,85.28
2017-11-12T05:27:22.139Z,85.05
2017-11-12T05:29:48.598Z,85.03
2017-11-12T05:32:15.822Z,84.76
2017-11-12T05:34:42.256Z,84.41
2017-11-12T05:37:08.699Z,84.44
2017-11-12T05:39:35.126Z,84.35
2017-11-12T05:42:01.560Z,84.65
2017-11-12T05:44:27.996Z,85.02
2017-11-12T05:46:54.368Z,84.97
2017-11-12T05:49:21.691Z,84.80
2017-11-12T05:51:48.119Z,84.91
2017-11-12T05:54:14.491Z,84.91
2017-11-12T05:56:40.884Z,84.46
2017-11-12T05:59:07.320Z,84.46
2017-11-12T06:01:33.754Z,84.59
2017-11-12T06:04:00.189Z,84.47
2017-11-12T06:06:27.443Z,84.15
2017-11-12T06:08:53.776Z,83.70
2017-11-12T06:11:20.218Z,83.40
2017-11-12T06:13:46.615Z,83.07
2017-11-12T06:16:13.089Z,83.06
2017-11-12T06:18:39.616Z,83.10
2017-11-12T06:21:06.059Z,83.39
2017-11-12T06:23:33.104Z,83.58
2017-11-12T06:25:59.535Z,83.93
2017-11-12T06:28:25.995Z,84.13
2017-11-12T06:30:52.407Z,84.25
2017-11-12T06:33:18.776Z,84.23
2017-11-12T06:35:45.274Z,84.24
2017-11-12T06:38:11.819Z,84.29
2017-11-12T06:40:38.900Z,84.44
2017-11-12T06:43:05.294Z,84.62
2017-11-12T06:45:31.833Z,84.24
2017-11-12T06:47:58.275Z,83.66
2017-11-12T06:50:24.697Z,83.25
2017-11-12T06:52:51.034Z,82.63
2017-11-12T06:55:17.469Z,82.24
2017-11-12T06:57:44.625Z,81.79
2017-11-12T07:00:11.053Z,81.43
2017-11-12T07:02:37.499Z,81.16
2017-11-12T07:05:03.932Z,81.16
2017-11-12T07:07:30.367Z,80.75
2017-11-12T07:09:56.792Z,80.19
2017-11-12T07:12:23.228Z,79.29
2017-11-12T07:14:50.490Z,78.45
2017-11-12T07:17:16.883Z,77.90
2017-11-12T07:19:43.358Z,76.92
2017-11-12T07:22:09.796Z,76.15
2017-11-12T07:24:36.220Z,74.76
2017-11-12T07:27:02.656Z,74.35
2017-11-12T07:29:29.089Z,73.86
2017-11-12T07:31:56.279Z,73.22
2017-11-12T07:34:22.750Z,72.61
2017-11-12T07:36:49.221Z,72.67
2017-11-12T07:39:15.668Z,72.35
2017-11-12T07:41:42.087Z,71.95
2017-11-12T07:44:08.527Z,71.37
2017-11-12T07:46:34.952Z,71.09
2017-11-12T07:49:02.206Z,70.78
2017-11-12T07:51:28.640Z,70.42
2017-11-12T07:53:55.016Z,69.84
2017-11-12T07:56:21.416Z,68.79
2017-11-12T07:58:47.799Z,68.74
2017-11-12T08:01:14.248Z,68.66
2017-11-12T08:03:40.718Z,68.26
2017-11-12T08:06:07.870Z,67.69
2017-11-12T08:08:34.296Z,67.41
2017-11-12T08:11:00.731Z,66.67
2017-11-12T08:13:27.053Z,66.61
2017-11-12T08:15:53.500Z,66.03
2017-11-12T08:18:19.941Z,65.28
2017-11-12T08:20:46.281Z,64.97
2017-11-12T08:23:13.499Z,64.56
2017-11-12T08:25:39.954Z,64.35
2017-11-12T08:28:06.398Z,64.43
2017-11-12T08:30:32.824Z,64.50
2017-11-12T08:32:59.195Z,64.24
2017-11-12T08:35:25.703Z,63.77
2017-11-12T08:37:52.128Z,63.32
2017-11-12T08:40:19.383Z,62.58
2017-11-12T08:42:45.819Z,61.70
2017-11-12T08:45:12.260Z,60.89
2017-11-12T08:47:38.694Z,59.55
2017-11-12T08:50:05.136Z,59.35
2017-11-12T08:52:31.665Z,58.88
2017-11-12T08:54:58.048Z,58.74
2017-11-12T08:57:25.345Z,57.56
2017-11-12T08:59:51.801Z,57.73
2017-11-12T09:02:18.215Z,57.25
2017-11-12T09:04:44.689Z,56.80
2017-11-12T09:07:11.093Z,56.54
2017-11-12T09:09:37.520Z,55.99
2017-11-12T09:12:03.940Z,55.55
2017-11-12T09:14:31.218Z,55.72
2017-11-12T09:16:57.585Z,55.64
2017-11-12T09:19:24.077Z,55.26
2017-11-12T09:21:50.522Z,54.96
2017-11-12T09:24:16.921Z,54.99
2017-11-12T09:26:43.389Z,55.59
2017-11-12T09:29:09.845Z,55.43
2017-11-12T09:31:37.070Z,54.70
2017-11-12T09:34:03.513Z,54.47
2017-11-12T09:36:29.940Z,53.55
2017-11-12T09:38:56.382Z,53.36
2017-11-12T09:41:22.922Z,52.67
2017-11-12T09:43:49.354Z,51.48
2017-11-12T09:46:15.812Z,50.71
2017-11-12T09:48:42.933Z,49.99
2017-11-12T09:51:09.375Z,49.26
2017-11-12T09:53:35.801Z,49.04
2017-11-12T09:56:02.191Z,48.10
2017-11-12T09:58:28.679Z,47.97
2017-11-12T10:00:55.040Z,47.87
2017-11-12T10:03:21.438Z,47.30
2017-11-12T10:05:48.692Z,47.08
2017-11-12T10:08:15.135Z,46.94
2017-11-12T10:10:41.562Z,46.87
2017-11-12T10:13:08.000Z,46.24
2017-11-12T10:15:34.373Z,46.86
2017-11-12T10:18:00.777Z,45.86
2017-11-12T10:20:27.208Z,44.96
2017-11-12T10:22:54.384Z,44.70
2017-11-12T10:25:20.715Z,44.58
2017-11-12T10:27:47.124Z,44.45
2017-11-12T10:30:13.496Z,43.98
2017-11-12T10:32:39.881Z,43.06
2017-11-12T10:35:06.325Z,42.58
2017-11-12T10:37:32.752Z,43.31
2017-11-12T10:39:59.289Z,43.31
2017-11-12T10:42:25.834Z,43.41
2017-11-12T10:44:52.261Z,45.87
2017-11-12T10:47:18.695Z,46.04
2017-11-12T10:49:45.139Z,46.38
2017-11-12T10:52:11.563Z,46.81
2017-11-12T10:54:37.934Z,46.87
2017-11-12T10:57:04.443Z,46.70
2017-11-12T10:59:30.810Z,46.84
2017-11-12T11:01:57.192Z,47.26
2017-11-12T11:04:23.607Z,47.57
2017-11-12T11:06:50.071Z,48.55
2017-11-12T11:09:16.454Z,49.75
2017-11-12T11:11:42.838Z,49.83
2017-11-12T11:14:09.172Z,49.78
2017-11-12T11:16:35.581Z,48.70
2017-11-12T11:19:02.049Z,47.92
2017-11-12T11:21:29.088Z,46.61
2017-11-12T11:23:55.492Z,46.32
2017-11-12T11:26:21.964Z,43.21
2017-11-12T11:28:48.414Z,41.93
2017-11-12T11:31:14.827Z,43.53
2017-11-12T11:33:41.262Z,42.94
2017-11-12T11:36:07.669Z,43.00
2017-11-12T11:38:34.864Z,43.51
2017-11-12T11:41:01.286Z,41.27
2017-11-12T11:43:27.929Z,40.76
2017-11-12T11:45:54.357Z,41.30
2017-11-12T11:48:20.792Z,41.96
2017-11-12T11:50:47.159Z,42.96
2017-11-12T11:53:13.540Z,42.77
2017-11-12T11:55:40.719Z,43.02
2017-11-12T11:58:07.045Z,43.82
2017-11-12T12:00:33.477Z,44.51
2017-11-12T12:02:59.921Z,44.23
2017-11-12T12:05:26.357Z,44.48
2017-11-12T12:07:52.772Z,45.04
2017-11-12T12:10:19.216Z,44.88
2017-11-12T12:12:46.403Z,45.48
2017-11-12T12:15:12.781Z,46.24
2017-11-12T12:17:39.172Z,46.77
2017-11-12T12:20:05.592Z,46.98
2017-11-12T12:22:31.979Z,47.37
2017-11-12T12:24:58.387Z,47.84
2017-11-12T12:27:24.863Z,48.12
2017-11-12T12:29:52.033Z,48.27
2017-11-12T12:32:18.420Z,47.72
2017-11-12T12:34:44.903Z,47.98
2017-11-12T12:37:11.444Z,47.88
2017-11-12T12:39:37.836Z,48.51
2017-11-12T12:42:04.300Z,48.06
2017-11-12T12:44:30.736Z,48.52
2017-11-12T12:46:57.886Z,48.36
2017-11-12T12:49:24.330Z,48.28
2017-11-12T12:51:50.764Z,48.71
2017-11-12T12:54:17.395Z,48.70
2017-11-12T12:56:43.845Z,48.61
2017-11-12T12:59:10.265Z,48.20
2017-11-12T13:01:36.708Z,47.78
2017-11-12T13:04:03.851Z,47.07
2017-11-12T13:06:30.306Z,47.07
2017-11-12T13:08:56.731Z,47.22
2017-11-12T13:11:23.162Z,47.81
2017-11-12T13:13:49.548Z,46.90
2017-11-12T13:16:16.016Z,46.39
2017-11-12T13:18:42.429Z,47.14
2017-11-12T13:21:09.610Z,47.95
2017-11-12T13:23:36.071Z,48.72
2017-11-12T13:26:02.548Z,49.18
2017-11-12T13:28:29.049Z,49.51
2017-11-12T13:30:55.453Z,49.67
2017-11-12T13:33:21.998Z,49.77
2017-11-12T13:35:48.447Z,49.87
2017-11-12T13:38:15.511Z,50.37
2017-11-12T13:40:41.907Z,50.85
2017-11-12T13:43:08.341Z,50.84
2017-11-12T13:45:34.779Z,51.18
2017-11-12T13:48:01.211Z,51.92
2017-11-12T13:50:27.651Z,52.28
2017-11-12T13:52:53.978Z,52.38
2017-11-12T13:55:21.130Z,52.52
2017-11-12T13:57:47.573Z,52.79
2017-11-12T14:00:14.000Z,52.92
2017-11-12T14:02:40.404Z,53.03
2017-11-12T14:05:06.766Z,53.30
2017-11-12T14:07:33.099Z,53.65
2017-11-12T14:09:59.541Z,53.85
2017-11-12T14:12:26.674Z,54.04
2017-11-12T14:14:53.120Z,54.46
2017-11-12T14:17:19.554Z,54.98
2017-11-12T14:19:45.989Z,55.04
2017-11-12T14:22:12.423Z,54.36
2017-11-12T14:24:38.858Z,52.42
2017-11-12T14:27:05.262Z,50.32
2017-11-12T14:29:31.728Z,49.20
2017-11-12T14:31:58.153Z,48.77
2017-11-12T14:34:24.539Z,49.61
2017-11-12T14:36:50.865Z,50.48
2017-11-12T14:39:17.372Z,51.42
2017-11-12T14:41:43.802Z,52.40
2017-11-12T14:44:10.262Z,53.66
2017-11-12T14:46:37.385Z,54.70
2017-11-12T14:49:03.821Z,55.67
2017-11-12T14:51:30.263Z,56.49
2017-11-12T14:53:56.695Z,57.37
2017-11-12T14:56:23.131Z,58.10
2017-11-12T14:58:49.561Z,58.85
2017-11-12T15:01:16.004Z,59.81
2017-11-12T15:03:43.259Z,60.44
2017-11-12T15:06:09.685Z,61.27
2017-11-12T15:08:36.120Z,62.26
2017-11-12T15:11:02.522Z,63.19
2017-11-12T15:13:28.995Z,63.74
2017-11-12T15:15:55.421Z,64.36
2017-11-12T15:18:21.957Z,64.91
2017-11-12T15:20:49.118Z,65.89
2017-11-12T15:23:15.545Z,66.28
2017-11-12T15:25:41.978Z,66.36
2017-11-12T15:28:08.397Z,66.44
2017-11-12T15:30:34.850Z,66.75
2017-11-12T15:33:01.215Z,66.97
2017-11-12T15:35:27.615Z,67.25
2017-11-12T15:37:54.877Z,67.53
2017-11-12T15:40:21.414Z,68.37
2017-11-12T15:42:47.841Z,68.74
2017-11-12T15:45:14.291Z,68.89
2017-11-12T15:47:40.718Z,68.93
2017-11-12T15:50:07.144Z,69.00
2017-11-12T15:52:34.100Z,69.62
2017-11-12T15:55:00.842Z,69.65
2017-11-12T15:57:27.268Z,70.00
2017-11-12T15:59:53.703Z,70.43
2017-11-12T16:02:20.138Z,70.64
2017-11-12T16:04:46.572Z,70.73
2017-11-12T16:07:13.027Z,70.85
2017-11-12T16:09:39.441Z,71.09
2017-11-12T16:12:06.704Z,71.16
2017-11-12T16:14:33.027Z,71.57
2017-11-12T16:16:59.470Z,71.95
2017-11-12T16:19:25.869Z,72.29
2017-11-12T16:21:52.332Z,72.33
2017-11-12T16:24:18.776Z,72.41
2017-11-12T16:26:45.144Z,72.41
2017-11-12T16:29:12.400Z,72.44
2017-11-12T16:31:38.875Z,72.39
2017-11-12T16:34:05.327Z,72.48
2017-11-12T16:36:31.758Z,72.80
2017-11-12T16:38:58.193Z,73.37
2017-11-12T16:41:24.595Z,73.71
2017-11-12T16:43:51.068Z,73.71
2017-11-12T16:46:18.160Z,73.55
2017-11-12T16:48:44.652Z,73.30
2017-11-12T16:51:11.084Z,73.24
2017-11-12T16:53:37.552Z,73.29
2017-11-12T16:56:03.953Z,73.42
2017-11-12T16:58:30.392Z,73.68
2017-11-12T17:00:56.823Z,73.83
2017-11-12T17:03:24.084Z,74.21
2017-11-12T17:05:50.500Z,74.35
2017-11-12T17:08:16.958Z,74.64
2017-11-12T17:10:43.315Z,74.83
2017-11-12T17:13:09.831Z,75.08
2017-11-12T17:15:36.252Z,75.02
2017-11-12T17:18:02.688Z,75.00
2017-11-12T17:20:29.844Z,74.97
2017-11-12T17:22:56.279Z,74.76
2017-11-12T17:25:22.707Z,74.69
2017-11-12T17:27:49.141Z,74.70
2017-11-12T17:30:15.584Z,74.71
2017-11-12T17:32:41.907Z,74.89
2017-11-12T17:35:08.328Z,75.19
2017-11-12T17:37:35.494Z,75.34
2017-11-12T17:40:01.938Z,75.60
2017-11-12T17:42:28.363Z,75.78
2017-11-12T17:44:54.800Z,75.91
2017-11-12T17:47:21.233Z,75.68
2017-11-12T17:49:47.668Z,75.62
2017-11-12T17:52:14.103Z,75.44
2017-11-12T17:54:41.380Z,75.45
2017-11-12T17:57:07.790Z,75.57
2017-11-12T17:59:34.197Z,76.07
2017-11-12T18:02:00.669Z,76.15
2017-11-12T18:04:27.094Z,75.96
2017-11-12T18:06:53.530Z,76.09
2017-11-12T18:09:19.988Z,76.19
2017-11-12T18:11:47.129Z,76.06
2017-11-12T18:14:13.559Z,75.95
2017-11-12T18:16:39.984Z,75.93
2017-11-12T18:19:06.392Z,76.14
2017-11-12T18:21:32.863Z,76.25
2017-11-12T18:23:59.230Z,76.21
2017-11-12T18:26:25.734Z,76.28
2017-11-12T18:28:52.772Z,75.10
2017-11-12T18:31:19.212Z,74.81
2017-11-12T18:33:45.663Z,75.11
2017-11-12T18:36:12.077Z,75.09
2017-11-12T18:38:38.525Z,75.30
2017-11-12T18:41:04.946Z,75.67
2017-11-12T18:43:31.320Z,75.66
2017-11-12T18:45:58.605Z,75.61
2017-11-12T18:48:25.073Z,75.57
2017-11-12T18:50:51.504Z,75.53
2017-11-12T18:53:17.939Z,75.12
2017-11-12T18:55:44.383Z,75.43
2017-11-12T18:58:10.807Z,75.39
2017-11-12T19:00:37.251Z,75.32
2017-11-12T19:03:04.498Z,75.20
2017-11-12T19:05:30.957Z,75.12
2017-11-12T19:07:57.368Z,75.41
2017-11-12T19:10:23.799Z,75.44
2017-11-12T19:12:50.133Z,75.47
2017-11-12T19:15:16.568Z,75.59
2017-11-12T19:17:43.016Z,75.72
2017-11-12T19:20:10.258Z,75.98
2017-11-12T19:22:36.709Z,76.36
2017-11-12T19:25:03.147Z,76.52
2017-11-12T19:27:29.564Z,76.86
2017-11-12T19:29:55.995Z,76.37
2017-11-12T19:32:22.364Z,76.24
2017-11-12T19:34:48.731Z,76.32
2017-11-12T19:37:16.024Z,76.34
2017-11-12T19:39:42.404Z,76.36
2017-11-12T19:42:08.887Z,76.27
2017-11-12T19:44:35.321Z,76.02
2017-11-12T19:47:01.764Z,75.63
2017-11-12T19:49:28.199Z,75.31
2017-11-12T19:51:54.624Z,74.57
2017-11-12T19:54:21.870Z,74.67
2017-11-12T19:56:48.331Z,74.56
2017-11-12T19:59:14.749Z,74.31
2017-11-12T20:01:41.216Z,74.37
2017-11-12T20:04:07.625Z,74.59
2017-11-12T20:06:34.060Z,74.54
2017-11-12T20:09:00.425Z,74.95
2017-11-12T20:11:27.641Z,74.69
2017-11-12T20:13:54.074Z,74.00
2017-11-12T20:16:20.509Z,73.59
2017-11-12T20:18:46.952Z,73.65
2017-11-12T20:21:13.486Z,73.75
2017-11-12T20:23:39.914Z,73.93
2017-11-12T20:26:06.370Z,73.88
2017-11-12T20:28:33.511Z,73.20
2017-11-12T20:31:00.065Z,73.38
2017-11-12T20:33:26.407Z,73.71
2017-11-12T20:35:52.744Z,74.14
2017-11-12T20:38:19.269Z,74.27
2017-11-12T20:40:45.693Z,74.48
2017-11-12T20:43:12.108Z,74.70
2017-11-12T20:45:39.260Z,74.80
2017-11-12T20:48:05.695Z,74.94
2017-11-12T20:50:32.149Z,75.01
2017-11-12T20:52:58.564Z,74.95
2017-11-12T20:55:25.007Z,74.78
2017-11-12T20:57:51.544Z,74.86
2017-11-12T21:00:17.978Z,74.81
2017-11-12T21:02:45.121Z,74.89
2017-11-12T21:05:11.564Z,74.95
2017-11-12T21:07:37.994Z,74.90
2017-11-12T21:10:04.426Z,74.58
2017-11-12T21:12:30.868Z,74.37
2017-11-12T21:14:57.307Z,74.19
2017-11-12T21:17:23.833Z,73.98
2017-11-12T21:19:50.886Z,73.97
2017-11-12T21:22:17.250Z,73.86
2017-11-12T21:24:43.648Z,73.79
2017-11-12T21:27:10.090Z,73.89
2017-11-12T21:29:36.527Z,73.90
2017-11-12T21:32:03.002Z,73.84
2017-11-12T21:34:29.490Z,73.71
2017-11-12T21:36:56.670Z,73.86
2017-11-12T21:39:23.096Z,73.94
2017-11-12T21:41:49.622Z,73.64
2017-11-12T21:44:16.075Z,73.61
2017-11-12T21:46:42.588Z,73.86
2017-11-12T21:49:09.048Z,73.67
2017-11-12T21:51:35.457Z,73.26
2017-11-12T21:54:02.707Z,73.00
2017-11-12T21:56:29.043Z,72.73
2017-11-12T21:58:55.484Z,72.35
2017-11-12T22:01:21.900Z,72.16
2017-11-12T22:03:48.320Z,72.04
2017-11-12T22:06:14.779Z,72.19
2017-11-12T22:08:41.222Z,71.58
2017-11-12T22:11:08.403Z,71.33
2017-11-12T22:13:34.740Z,71.03
2017-11-12T22:16:01.244Z,71.20
2017-11-12T22:18:27.670Z,71.19
2017-11-12T22:20:54.104Z,70.95
2017-11-12T22:23:20.548Z,70.73
2017-11-12T22:25:46.982Z,70.93
2017-11-12T22:28:14.330Z,70.96
2017-11-12T22:30:40.773Z,71.35
2017-11-12T22:33:07.199Z,71.47
2017-11-12T22:35:33.635Z,71.72
2017-11-12T22:38:00.045Z,71.85
2017-11-12T22:40:26.504Z,71.90
2017-11-12T22:42:52.939Z,71.71
2017-11-12T22:45:20.192Z,71.90
2017-11-12T22:47:46.637Z,72.20
2017-11-12T22:50:13.063Z,72.52
2017-11-12T22:52:39.510Z,72.68
2017-11-12T22:55:05.900Z,72.85
2017-11-12T22:57:32.374Z,72.96
2017-11-12T22:59:59.991Z,72.70
2017-11-12T23:02:26.400Z,72.71
2017-11-12T23:04:52.907Z,72.68
2017-11-12T23:07:19.336Z,72.52
2017-11-12T23:09:45.779Z,72.29
2017-11-12T23:12:12.206Z,72.41
2017-11-12T23:14:38.744Z,72.32
2017-11-12T23:17:05.072Z,72.41
2017-11-12T23:19:32.438Z,72.69
2017-11-12T23:21:58.863Z,72.69
2017-11-12T23:24:25.298Z,72.55
2017-11-12T23:26:51.734Z,72.21
2017-11-12T23:29:18.167Z,72.08
2017-11-12T23:31:44.611Z,72.20
2017-11-12T23:34:11.056Z,72.10
2017-11-12T23:36:38.299Z,72.04
2017-11-12T23:39:04.664Z,71.83
2017-11-12T23:41:31.058Z,71.74
2017-11-12T23:43:57.492Z,71.51
2017-11-12T23:46:23.927Z,71.33
2017-11-12T23:48:50.319Z,70.99
2017-11-12T23:51:16.791Z,70.83
2017-11-12T23:53:43.930Z,70.84
2017-11-12T23:56:10.351Z,70.86
2017-11-12T23:58:36.824Z,70.69
